Terminal Aerodrome Forecast
Issued by NWS

Home | Current Version | Previous Version | Text Only | Print | Product List | Glossary On
Versions: 1 2 3 4 5 6 7 8 9 10 11 12 13 14 15 16 17 18 19 20 21 22 23 24 25 26
102
FTUS41 KOKX 150239 AAA
TAFSWF
TAF AMD
KSWF 150239Z 1503/1606 27005KT P6SM FEW230
     FM151100 24003KT P6SM BKN180
     FM151700 22005KT P6SM SCT040 BKN090
     FM160500 24004KT P6SM SCT080
      AMD NOT SKED=

USA.gov is the U.S. government's official web portal to all federal, state and local government web resources and services.